Terminal Aerodrome Forecast
Issued by NWS Paducah, KY

Home | Current Version | Previous Version | Text Only | Print | Product List | Glossary On
Versions: 1 2 3 4 5 6 7 8 9 10 11 12 13 14 15 16 17
031
FTUS43 KPAH 250207 AAA
TAFEVV
TAF AMD
KEVV 250207Z 2502/2524 22012G21KT 3SM SHRA VCTS OVC010CB
      TEMPO 2502/2503 1SM TSRA BR
     FM250500 24015G25KT 4SM -SHRA OVC010
     FM250700 27017G27KT P6SM VCSH OVC015
     FM250900 27015G25KT P6SM BKN025
     FM251100 27010KT P6SM SCT030
     FM251500 27008KT P6SM SKC
     FM252300 VRB03KT P6SM SKC=

USA.gov is the U.S. government's official web portal to all federal, state and local government web resources and services.